Time;durP1;ratioP1;P1;durP2;ratioP2;P2;SDS_P1;SDS_P2;PMS_P1;PMS_P2;Temp;Humidity;BMP_temperature;BMP_pressure;BME280_temperature;BME280_humidity;BME280_pressure;Samples;Min_cycle;Max_cycle;Signal;HPM_P1;HPM_P2
2023/09/06 00:01:18;;;;;;;5.03;4.63;;;;;;;;;;5092216;28;20288;-72
2023/09/06 00:03:45;;;;;;;6.17;4.67;;;;;;;;;;5110114;28;20670;-72
2023/09/06 00:06:12;;;;;;;5.30;4.40;;;;;;;;;;5100911;28;20206;-71
2023/09/06 00:08:39;;;;;;;7.27;5.07;;;;;;;;;;5092556;28;20207;-72
2023/09/06 00:11:07;;;;;;;9.60;5.30;;;;;;;;;;5092221;28;20702;-72
2023/09/06 00:13:34;;;;;;;5.77;4.97;;;;;;;;;;5105336;28;20208;-72
2023/09/06 00:16:02;;;;;;;5.87;5.17;;;;;;;;;;5104039;28;20215;-71
2023/09/06 00:18:29;;;;;;;7.20;4.80;;;;;;;;;;5092041;28;20732;-70
2023/09/06 00:20:57;;;;;;;5.07;4.57;;;;;;;;;;5104153;28;20199;-71
2023/09/06 00:23:25;;;;;;;6.00;5.10;;;;;;;;;;5105724;28;20249;-72
2023/09/06 00:25:53;;;;;;;4.83;4.10;;;;;;;;;;5091739;28;20768;-71
2023/09/06 00:28:23;;;;;;;6.70;4.67;;;;;;;;;;5098809;28;20207;-72
2023/09/06 00:30:50;;;;;;;7.80;4.83;;;;;;;;;;5098296;28;20212;-72
2023/09/06 00:33:18;;;;;;;6.20;4.40;;;;;;;;;;5111795;28;20199;-72
2023/09/06 00:35:45;;;;;;;7.50;5.07;;;;;;;;;;5097550;28;20653;-71
2023/09/06 00:38:11;;;;;;;7.10;4.93;;;;;;;;;;5091831;28;20207;-72
2023/09/06 00:40:40;;;;;;;5.60;5.10;;;;;;;;;;5092780;28;20274;-73
2023/09/06 00:43:07;;;;;;;5.50;4.70;;;;;;;;;;5103037;28;20234;-72
2023/09/06 00:45:41;;;;;;;5.27;4.43;;;;;;;;;;5093648;28;20200;-72
2023/09/06 00:48:08;;;;;;;6.50;4.57;;;;;;;;;;5112101;28;20202;-72
2023/09/06 00:50:36;;;;;;;7.97;4.47;;;;;;;;;;5094969;28;20287;-71
2023/09/06 00:53:05;;;;;;;5.93;4.40;;;;;;;;;;5101414;28;20196;-71
2023/09/06 00:55:32;;;;;;;6.30;4.70;;;;;;;;;;5094380;28;20284;-72
2023/09/06 00:57:58;;;;;;;5.40;4.60;;;;;;;;;;5101657;28;20306;-72
2023/09/06 01:00:26;;;;;;;8.77;4.43;;;;;;;;;;5097600;28;20256;-72
2023/09/06 01:02:55;;;;;;;5.47;4.97;;;;;;;;;;5111454;28;20693;-72
2023/09/06 01:05:22;;;;;;;7.10;4.97;;;;;;;;;;5111145;28;20206;-72
2023/09/06 01:07:52;;;;;;;5.03;4.53;;;;;;;;;;5099176;28;20204;-71
2023/09/06 01:10:19;;;;;;;6.10;4.60;;;;;;;;;;5090776;28;20263;-70
2023/09/06 01:12:46;;;;;;;7.23;5.50;;;;;;;;;;5091071;28;20207;-71
2023/09/06 01:15:13;;;;;;;11.83;4.90;;;;;;;;;;5091095;28;20215;-71
2023/09/06 01:17:41;;;;;;;6.53;5.50;;;;;;;;;;5090773;28;20228;-71
2023/09/06 01:20:16;;;;;;;9.83;4.70;;;;;;;;;;5104592;28;20196;-71
2023/09/06 01:22:49;;;;;;;5.17;4.57;;;;;;;;;;5090903;28;20200;-70
2023/09/06 01:25:18;;;;;;;6.07;4.60;;;;;;;;;;5090797;28;20204;-70
2023/09/06 01:27:45;;;;;;;5.07;4.63;;;;;;;;;;5092439;28;20200;-71
2023/09/06 01:30:12;;;;;;;5.97;4.27;;;;;;;;;;5111071;28;20200;-71
2023/09/06 01:32:40;;;;;;;4.83;4.27;;;;;;;;;;5094739;28;20257;-71
2023/09/06 01:35:10;;;;;;;6.57;3.97;;;;;;;;;;5091544;28;20220;-72
2023/09/06 01:37:37;;;;;;;6.97;4.60;;;;;;;;;;5104319;28;20240;-72
2023/09/06 01:40:15;;;;;;;7.53;4.40;;;;;;;;;;5090791;28;20680;-72
2023/09/06 01:42:44;;;;;;;4.97;4.03;;;;;;;;;;5090687;28;20245;-72
2023/09/06 01:45:11;;;;;;;4.80;4.40;;;;;;;;;;5102789;28;20569;-72
2023/09/06 01:47:37;;;;;;;5.37;4.30;;;;;;;;;;5097246;28;20203;-72
2023/09/06 01:50:05;;;;;;;6.23;5.00;;;;;;;;;;5098279;28;20197;-72
2023/09/06 01:52:32;;;;;;;5.83;4.30;;;;;;;;;;5104186;28;20204;-72
2023/09/06 01:54:59;;;;;;;5.30;3.77;;;;;;;;;;5103672;28;20213;-72
2023/09/06 01:57:25;;;;;;;6.40;3.83;;;;;;;;;;5096800;28;20708;-72
2023/09/06 01:59:53;;;;;;;5.30;3.47;;;;;;;;;;5097585;28;20697;-72
2023/09/06 02:02:20;;;;;;;4.50;4.10;;;;;;;;;;5104071;28;20200;-72
2023/09/06 02:04:47;;;;;;;7.67;4.17;;;;;;;;;;5090868;28;20200;-72
2023/09/06 02:07:14;;;;;;;4.17;3.87;;;;;;;;;;5096990;28;20207;-72
2023/09/06 02:09:41;;;;;;;12.93;4.50;;;;;;;;;;5110663;28;20220;-71
2023/09/06 02:12:08;;;;;;;5.00;3.90;;;;;;;;;;5110592;28;20253;-71
2023/09/06 02:14:35;;;;;;;5.33;3.83;;;;;;;;;;5097389;28;20212;-72
2023/09/06 02:17:03;;;;;;;4.17;3.77;;;;;;;;;;5097579;28;20655;-72
2023/09/06 02:19:30;;;;;;;4.73;4.00;;;;;;;;;;5096632;28;20200;-70
2023/09/06 02:21:57;;;;;;;6.87;3.70;;;;;;;;;;5110943;28;20206;-72
2023/09/06 02:24:24;;;;;;;7.63;4.30;;;;;;;;;;5110847;28;20204;-72
2023/09/06 02:26:53;;;;;;;4.70;3.70;;;;;;;;;;5102184;28;20222;-71
2023/09/06 02:29:20;;;;;;;4.33;3.50;;;;;;;;;;5090377;28;20224;-72
2023/09/06 02:31:47;;;;;;;6.57;3.90;;;;;;;;;;5090067;28;20200;-72
2023/09/06 02:34:15;;;;;;;3.70;3.40;;;;;;;;;;5092255;28;20204;-73
2023/09/06 02:36:42;;;;;;;7.43;4.07;;;;;;;;;;5101170;28;20725;-72
2023/09/06 02:39:09;;;;;;;8.23;3.77;;;;;;;;;;5103531;28;20199;-73
2023/09/06 02:41:36;;;;;;;5.37;3.80;;;;;;;;;;5099616;28;20650;-72
2023/09/06 02:44:02;;;;;;;8.17;3.80;;;;;;;;;;5099907;28;20200;-72
2023/09/06 02:46:29;;;;;;;3.77;3.47;;;;;;;;;;5114037;28;20203;-72
2023/09/06 02:48:58;;;;;;;7.97;3.73;;;;;;;;;;5097555;28;20793;-72
2023/09/06 02:51:29;;;;;;;6.67;4.03;;;;;;;;;;5093620;28;20239;-71
2023/09/06 02:53:57;;;;;;;4.07;3.73;;;;;;;;;;5097837;28;20196;-72
2023/09/06 02:56:24;;;;;;;4.57;4.07;;;;;;;;;;5102472;28;20200;-72
2023/09/06 02:58:51;;;;;;;6.27;4.57;;;;;;;;;;5093995;28;20208;-72
2023/09/06 03:01:20;;;;;;;4.37;3.97;;;;;;;;;;5093614;28;20208;-71
2023/09/06 03:03:51;;;;;;;5.77;3.90;;;;;;;;;;5093490;28;20224;-72
2023/09/06 03:06:18;;;;;;;4.33;3.70;;;;;;;;;;5106184;28;20195;-71
2023/09/06 03:08:47;;;;;;;4.40;4.00;;;;;;;;;;5099727;28;20238;-71
2023/09/06 03:11:15;;;;;;;4.40;3.83;;;;;;;;;;5100026;28;20227;-71
2023/09/06 03:13:43;;;;;;;5.93;4.47;;;;;;;;;;5106800;28;20235;-72
2023/09/06 03:16:13;;;;;;;5.80;3.70;;;;;;;;;;5093392;28;20212;-71
2023/09/06 03:18:40;;;;;;;6.90;3.43;;;;;;;;;;5113351;28;20314;-71
2023/09/06 03:21:08;;;;;;;5.10;3.63;;;;;;;;;;5098310;28;20212;-72
2023/09/06 03:23:34;;;;;;;4.23;3.83;;;;;;;;;;5093120;28;20200;-71
2023/09/06 03:26:03;;;;;;;5.03;3.87;;;;;;;;;;5092569;28;20207;-71
2023/09/06 03:28:29;;;;;;;4.27;3.87;;;;;;;;;;5101104;28;20204;-71
2023/09/06 03:30:58;;;;;;;5.07;3.67;;;;;;;;;;5099214;28;20204;-71
2023/09/06 03:33:26;;;;;;;3.70;3.40;;;;;;;;;;5104750;28;20235;-71
2023/09/06 03:35:52;;;;;;;7.33;3.97;;;;;;;;;;5106076;28;20313;-71
2023/09/06 03:38:25;;;;;;;4.30;3.90;;;;;;;;;;5092044;28;20227;-71
2023/09/06 03:40:52;;;;;;;4.63;3.83;;;;;;;;;;5107944;28;20203;-71
2023/09/06 03:43:29;;;;;;;4.07;3.67;;;;;;;;;;5112273;28;20691;-71
2023/09/06 03:45:58;;;;;;;4.57;3.40;;;;;;;;;;5112128;28;20662;-71
2023/09/06 03:48:27;;;;;;;5.00;3.90;;;;;;;;;;5111045;28;20200;-71
2023/09/06 03:50:56;;;;;;;4.17;3.77;;;;;;;;;;5112905;28;20241;-71
2023/09/06 03:53:23;;;;;;;4.77;3.70;;;;;;;;;;5112351;28;20199;-71
2023/09/06 03:55:57;;;;;;;10.37;4.27;;;;;;;;;;5112363;28;20282;-71
2023/09/06 03:58:25;;;;;;;5.00;4.10;;;;;;;;;;5112545;28;20223;-71
2023/09/06 04:00:52;;;;;;;9.73;4.53;;;;;;;;;;5112736;28;20240;-71
2023/09/06 04:03:20;;;;;;;4.50;3.87;;;;;;;;;;5104326;28;20557;-71
2023/09/06 04:05:47;;;;;;;4.20;3.80;;;;;;;;;;5092908;28;20212;-71
2023/09/06 04:08:17;;;;;;;3.57;3.27;;;;;;;;;;5111281;28;20214;-71
2023/09/06 04:10:44;;;;;;;4.23;3.60;;;;;;;;;;5112009;28;20227;-71
2023/09/06 04:13:12;;;;;;;3.33;3.03;;;;;;;;;;5112463;28;20195;-71
2023/09/06 04:15:42;;;;;;;7.53;4.30;;;;;;;;;;5104825;28;20232;-71
2023/09/06 04:18:10;;;;;;;4.30;3.90;;;;;;;;;;5091831;28;20709;-71
2023/09/06 04:20:39;;;;;;;4.30;3.90;;;;;;;;;;5092220;28;20243;-72
2023/09/06 04:23:07;;;;;;;5.57;3.63;;;;;;;;;;5092059;28;20207;-71
2023/09/06 04:25:41;;;;;;;5.63;3.80;;;;;;;;;;5084739;28;20208;-72
2023/09/06 04:28:08;;;;;;;6.33;3.73;;;;;;;;;;5096591;28;20199;-72
2023/09/06 04:30:37;;;;;;;3.83;3.30;;;;;;;;;;5092178;28;20204;-72
2023/09/06 04:33:05;;;;;;;5.73;4.60;;;;;;;;;;5104123;28;20199;-71
2023/09/06 04:35:34;;;;;;;5.63;4.43;;;;;;;;;;5091792;28;20215;-71
2023/09/06 04:38:02;;;;;;;4.37;3.97;;;;;;;;;;5091124;28;20224;-72
2023/09/06 04:40:30;;;;;;;4.60;4.07;;;;;;;;;;5104484;28;20602;-72
2023/09/06 04:42:59;;;;;;;4.53;4.10;;;;;;;;;;5104515;28;20749;-72
2023/09/06 04:45:26;;;;;;;4.63;3.47;;;;;;;;;;5091512;28;20196;-72
2023/09/06 04:47:52;;;;;;;8.50;4.87;;;;;;;;;;5104645;28;20626;-72
2023/09/06 04:50:21;;;;;;;4.30;3.90;;;;;;;;;;5099124;28;20200;-72
2023/09/06 04:52:50;;;;;;;4.50;3.77;;;;;;;;;;5109927;28;20203;-72
2023/09/06 04:55:19;;;;;;;5.03;3.90;;;;;;;;;;5091449;28;20234;-72
2023/09/06 04:57:47;;;;;;;5.20;4.30;;;;;;;;;;5093467;28;20227;-72
2023/09/06 05:00:23;;;;;;;4.47;4.03;;;;;;;;;;5111475;28;20211;-72
2023/09/06 05:02:51;;;;;;;6.37;4.03;;;;;;;;;;5106308;28;20814;-72
2023/09/06 05:05:21;;;;;;;4.87;4.17;;;;;;;;;;5090775;28;20282;-73
2023/09/06 05:07:48;;;;;;;4.10;3.80;;;;;;;;;;5090988;28;20261;-72
2023/09/06 05:10:14;;;;;;;5.77;4.23;;;;;;;;;;5103568;28;20219;-72
2023/09/06 05:12:41;;;;;;;5.37;4.13;;;;;;;;;;5097302;28;20203;-72
2023/09/06 05:15:12;;;;;;;6.40;3.93;;;;;;;;;;5098315;28;20200;-72
2023/09/06 05:17:39;;;;;;;4.63;3.90;;;;;;;;;;5097883;28;20713;-73
2023/09/06 05:20:27;;;;;;;4.70;3.73;;;;;;;;;;5090969;28;20196;-72
2023/09/06 05:22:55;;;;;;;5.70;3.70;;;;;;;;;;5100861;28;20211;-72
2023/09/06 05:25:21;;;;;;;7.13;4.67;;;;;;;;;;5096737;28;20199;-73
2023/09/06 05:27:48;;;;;;;8.93;4.10;;;;;;;;;;5108393;28;20681;-72
2023/09/06 05:30:15;;;;;;;7.37;4.00;;;;;;;;;;5090773;28;20212;-72
2023/09/06 05:32:43;;;;;;;4.37;3.97;;;;;;;;;;5092804;28;20583;-72
2023/09/06 05:35:10;;;;;;;4.60;4.20;;;;;;;;;;5101583;28;20276;-73
2023/09/06 05:37:39;;;;;;;5.57;4.37;;;;;;;;;;5106581;28;20314;-72
2023/09/06 05:40:07;;;;;;;4.30;3.90;;;;;;;;;;5100848;28;20207;-72
2023/09/06 05:42:34;;;;;;;5.07;4.50;;;;;;;;;;5103845;28;20201;-72
2023/09/06 05:45:01;;;;;;;4.10;3.80;;;;;;;;;;5106011;28;20203;-73
2023/09/06 05:47:28;;;;;;;4.97;4.47;;;;;;;;;;5100854;28;20200;-73
2023/09/06 05:49:56;;;;;;;5.30;4.67;;;;;;;;;;5090835;28;20560;-73
2023/09/06 05:52:23;;;;;;;4.73;3.90;;;;;;;;;;5101206;28;20214;-73
2023/09/06 05:54:51;;;;;;;6.50;4.87;;;;;;;;;;5105898;28;20231;-73
2023/09/06 05:57:19;;;;;;;4.57;4.13;;;;;;;;;;5090418;28;20196;-72
2023/09/06 05:59:45;;;;;;;5.50;4.00;;;;;;;;;;5095761;28;20234;-73
2023/09/06 06:02:14;;;;;;;5.13;4.00;;;;;;;;;;5098373;28;20257;-73
2023/09/06 06:04:41;;;;;;;5.67;4.40;;;;;;;;;;5103429;28;20299;-73
2023/09/06 06:07:08;;;;;;;7.70;4.87;;;;;;;;;;5103197;28;20207;-73
2023/09/06 06:09:36;;;;;;;6.40;4.50;;;;;;;;;;5096722;28;20199;-72
2023/09/06 06:12:05;;;;;;;5.00;3.83;;;;;;;;;;5109969;28;20637;-73
2023/09/06 06:14:33;;;;;;;5.57;4.13;;;;;;;;;;5089748;28;20200;-73
2023/09/06 06:17:00;;;;;;;6.00;4.60;;;;;;;;;;5091880;28;20204;-72
2023/09/06 06:19:26;;;;;;;5.50;5.00;;;;;;;;;;5103393;28;20234;-73
2023/09/06 06:21:53;;;;;;;5.70;4.83;;;;;;;;;;5100153;28;20196;-72
2023/09/06 06:24:20;;;;;;;6.90;4.70;;;;;;;;;;5108766;28;20200;-77
2023/09/06 06:26:49;;;;;;;6.17;5.67;;;;;;;;;;5094314;28;20200;-78
2023/09/06 06:29:17;;;;;;;7.93;5.23;;;;;;;;;;5094319;28;20204;-77
2023/09/06 06:31:44;;;;;;;5.53;4.50;;;;;;;;;;5102694;28;20199;-78
2023/09/06 06:34:13;;;;;;;4.80;4.40;;;;;;;;;;5096706;28;20206;-77
2023/09/06 06:36:40;;;;;;;5.37;4.73;;;;;;;;;;5093788;28;20270;-77
2023/09/06 06:39:07;;;;;;;4.53;4.10;;;;;;;;;;5093724;28;20219;-78
2023/09/06 06:41:34;;;;;;;6.93;4.40;;;;;;;;;;5092871;28;20258;-77
2023/09/06 06:44:01;;;;;;;5.57;4.60;;;;;;;;;;5093084;28;20266;-77
2023/09/06 06:46:31;;;;;;;4.97;4.30;;;;;;;;;;5105595;28;20210;-77
2023/09/06 06:49:02;;;;;;;4.93;4.40;;;;;;;;;;5100360;28;20203;-77
2023/09/06 06:51:31;;;;;;;4.83;4.43;;;;;;;;;;5100305;28;20196;-78
2023/09/06 06:53:58;;;;;;;7.30;4.37;;;;;;;;;;5099979;28;20630;-77
2023/09/06 06:56:25;;;;;;;7.87;4.90;;;;;;;;;;5100334;28;20209;-78
2023/09/06 06:58:52;;;;;;;7.10;5.03;;;;;;;;;;5099765;28;20606;-78
2023/09/06 07:01:20;;;;;;;5.30;4.80;;;;;;;;;;5100217;28;20266;-78
2023/09/06 07:03:48;;;;;;;5.47;4.50;;;;;;;;;;5094089;28;20215;-78
2023/09/06 07:06:14;;;;;;;7.40;4.63;;;;;;;;;;5103840;28;20674;-78
2023/09/06 07:08:41;;;;;;;4.77;4.33;;;;;;;;;;5091126;28;20250;-77
2023/09/06 07:11:08;;;;;;;6.27;4.50;;;;;;;;;;5104667;28;20230;-77
2023/09/06 07:13:35;;;;;;;6.40;4.87;;;;;;;;;;5109717;28;20200;-77
2023/09/06 07:16:03;;;;;;;10.93;4.70;;;;;;;;;;5113583;28;20223;-77
2023/09/06 07:18:30;;;;;;;7.17;4.60;;;;;;;;;;5113067;28;20235;-78
2023/09/06 07:20:59;;;;;;;4.67;4.27;;;;;;;;;;5113568;28;20290;-77
2023/09/06 07:23:27;;;;;;;5.20;4.70;;;;;;;;;;5113009;28;20198;-78
2023/09/06 07:25:53;;;;;;;4.60;4.20;;;;;;;;;;5109183;28;20254;-78
2023/09/06 07:28:23;;;;;;;7.47;5.07;;;;;;;;;;5099661;28;20204;-78
2023/09/06 07:30:50;;;;;;;5.13;4.63;;;;;;;;;;5112157;28;20286;-78
2023/09/06 07:33:17;;;;;;;9.27;5.20;;;;;;;;;;5113300;28;20211;-78
2023/09/06 07:35:44;;;;;;;5.83;4.47;;;;;;;;;;5113389;28;20203;-78
2023/09/06 07:38:12;;;;;;;6.40;5.17;;;;;;;;;;5113351;28;20238;-78
2023/09/06 07:40:39;;;;;;;5.57;5.07;;;;;;;;;;5101742;28;20663;-78
2023/09/06 07:43:06;;;;;;;6.57;5.63;;;;;;;;;;5104548;28;20203;-77
2023/09/06 07:45:32;;;;;;;7.63;5.60;;;;;;;;;;5101756;28;20203;-77
2023/09/06 07:48:01;;;;;;;9.50;5.23;;;;;;;;;;5110666;28;20204;-78
2023/09/06 07:50:27;;;;;;;12.20;4.87;;;;;;;;;;5092738;28;20287;-78
2023/09/06 07:52:54;;;;;;;7.03;5.60;;;;;;;;;;5092179;28;20207;-77
2023/09/06 07:55:22;;;;;;;7.63;5.47;;;;;;;;;;5102204;28;20203;-77
2023/09/06 07:57:49;;;;;;;7.10;5.43;;;;;;;;;;5112545;28;20689;-77
2023/09/06 08:00:17;;;;;;;11.53;5.70;;;;;;;;;;5102616;28;20421;-78
2023/09/06 08:02:43;;;;;;;7.07;6.37;;;;;;;;;;5092188;28;20204;-78
2023/09/06 08:05:10;;;;;;;13.87;10.63;;;;;;;;;;5092385;28;20209;-78
2023/09/06 08:07:37;;;;;;;9.70;7.30;;;;;;;;;;5092027;28;20204;-78
2023/09/06 08:10:08;;;;;;;18.53;7.17;;;;;;;;;;5092042;28;20220;-78
2023/09/06 08:12:37;;;;;;;44.83;10.23;;;;;;;;;;5105232;28;20675;-77
2023/09/06 08:15:06;;;;;;;15.73;7.27;;;;;;;;;;5103794;28;20704;-79
2023/09/06 08:17:34;;;;;;;18.87;8.73;;;;;;;;;;5098782;28;20200;-78
2023/09/06 08:20:01;;;;;;;8.30;6.77;;;;;;;;;;5099562;28;20223;-78
2023/09/06 08:22:28;;;;;;;17.47;7.23;;;;;;;;;;5097082;28;20211;-79
2023/09/06 08:24:54;;;;;;;7.40;6.30;;;;;;;;;;5108358;28;20196;-79
2023/09/06 08:27:21;;;;;;;30.23;9.63;;;;;;;;;;5100408;28;20207;-79
2023/09/06 08:29:49;;;;;;;15.83;8.03;;;;;;;;;;5105256;28;20233;-81
2023/09/06 08:32:16;;;;;;;11.43;6.77;;;;;;;;;;5105326;28;20201;-80
2023/09/06 08:34:43;;;;;;;11.80;6.93;;;;;;;;;;5107424;28;20207;-81
2023/09/06 08:37:10;;;;;;;11.83;7.27;;;;;;;;;;5098457;28;20200;-80
2023/09/06 08:39:37;;;;;;;7.77;6.97;;;;;;;;;;5110690;28;20243;-80
2023/09/06 08:42:06;;;;;;;8.87;8.00;;;;;;;;;;5100109;28;20211;-81
2023/09/06 08:44:33;;;;;;;10.93;6.63;;;;;;;;;;5102028;28;20196;-80
2023/09/06 08:47:04;;;;;;;13.00;7.83;;;;;;;;;;5111456;28;20199;-81
2023/09/06 08:49:31;;;;;;;17.67;6.77;;;;;;;;;;5111477;28;20213;-80
2023/09/06 08:51:59;;;;;;;9.53;6.57;;;;;;;;;;5111196;28;20196;-81
2023/09/06 08:54:26;;;;;;;13.53;7.10;;;;;;;;;;5106962;28;20203;-81
2023/09/06 08:56:53;;;;;;;7.97;6.47;;;;;;;;;;5107461;28;20204;-79
2023/09/06 08:59:20;;;;;;;6.97;6.17;;;;;;;;;;5102059;28;20329;-81
2023/09/06 09:01:47;;;;;;;19.00;7.33;;;;;;;;;;5111535;28;20253;-82
2023/09/06 09:04:15;;;;;;;13.13;7.30;;;;;;;;;;5111779;28;20219;-78
2023/09/06 09:06:43;;;;;;;17.10;7.47;;;;;;;;;;5101842;28;20195;-78
2023/09/06 09:09:15;;;;;;;16.13;6.80;;;;;;;;;;5103518;28;20212;-78
2023/09/06 09:11:44;;;;;;;17.77;7.60;;;;;;;;;;5096431;28;20277;-80
2023/09/06 09:14:19;;;;;;;7.63;6.37;;;;;;;;;;5090932;28;20200;-80
2023/09/06 09:16:45;;;;;;;8.00;6.20;;;;;;;;;;5101807;28;20222;-80
2023/09/06 09:19:12;;;;;;;9.80;5.57;;;;;;;;;;5099242;28;20227;-81
2023/09/06 09:21:42;;;;;;;9.43;6.67;;;;;;;;;;5104445;28;20200;-82
2023/09/06 09:24:08;;;;;;;8.97;6.17;;;;;;;;;;5091244;28;20239;-79
2023/09/06 09:26:35;;;;;;;9.73;6.73;;;;;;;;;;5096523;28;20669;-81
2023/09/06 09:29:03;;;;;;;8.67;6.63;;;;;;;;;;5098354;28;20694;-81
2023/09/06 09:31:31;;;;;;;6.70;6.07;;;;;;;;;;5096392;28;20677;-81
2023/09/06 09:34:01;;;;;;;7.23;6.57;;;;;;;;;;5110946;28;20693;-81
2023/09/06 09:36:34;;;;;;;9.70;6.07;;;;;;;;;;5111336;28;20204;-81
2023/09/06 09:39:06;;;;;;;8.10;5.57;;;;;;;;;;5109819;28;20227;-81
2023/09/06 09:41:33;;;;;;;10.53;6.13;;;;;;;;;;5089485;28;20208;-82
2023/09/06 09:44:13;;;;;;;7.80;7.00;;;;;;;;;;5104332;28;20200;-81
2023/09/06 09:46:40;;;;;;;6.80;6.20;;;;;;;;;;5090238;28;20204;-81
2023/09/06 09:49:10;;;;;;;7.87;7.13;;;;;;;;;;5089691;28;20390;-81
2023/09/06 09:51:37;;;;;;;6.70;6.20;;;;;;;;;;5102892;28;20282;-81
2023/09/06 09:54:06;;;;;;;8.60;6.10;;;;;;;;;;5100693;28;20191;-81
2023/09/06 09:56:34;;;;;;;6.93;6.00;;;;;;;;;;5100967;28;20204;-81
2023/09/06 09:59:01;;;;;;;7.17;6.23;;;;;;;;;;5113727;28;20219;-81
2023/09/06 10:01:28;;;;;;;6.80;5.90;;;;;;;;;;5101144;28;20287;-82
2023/09/06 10:03:57;;;;;;;6.90;6.10;;;;;;;;;;5094521;28;20200;-82
2023/09/06 10:06:26;;;;;;;14.70;7.33;;;;;;;;;;5108308;28;20188;-82
2023/09/06 10:08:55;;;;;;;9.20;6.70;;;;;;;;;;5094562;28;20674;-82
2023/09/06 10:11:23;;;;;;;8.83;6.40;;;;;;;;;;5093938;28;20651;-82
2023/09/06 10:13:50;;;;;;;14.13;6.73;;;;;;;;;;5094821;28;20203;-81
2023/09/06 10:16:18;;;;;;;7.97;7.20;;;;;;;;;;5096269;28;20227;-81
2023/09/06 10:18:45;;;;;;;8.70;7.80;;;;;;;;;;5105341;28;20204;-81
2023/09/06 10:21:13;;;;;;;7.03;6.27;;;;;;;;;;5096273;28;20215;-79
2023/09/06 10:23:42;;;;;;;9.27;6.07;;;;;;;;;;5105007;28;20219;-81
2023/09/06 10:26:09;;;;;;;7.90;6.20;;;;;;;;;;5094742;28;20206;-81
2023/09/06 10:28:38;;;;;;;9.17;6.70;;;;;;;;;;5103017;28;20260;-82
2023/09/06 10:31:10;;;;;;;8.67;6.03;;;;;;;;;;5111059;28;20199;-80
2023/09/06 10:33:56;;;;;;;13.47;6.77;;;;;;;;;;5094139;28;20204;-81
2023/09/06 10:36:27;;;;;;;9.37;6.50;;;;;;;;;;5107713;28;20254;-82
2023/09/06 10:39:16;;;;;;;6.70;6.00;;;;;;;;;;5093859;28;20201;-82
2023/09/06 10:42:19;;;;;;;10.60;6.57;;;;;;;;;;5105970;28;20355;-81
2023/09/06 10:45:12;;;;;;;7.83;5.83;;;;;;;;;;5094126;28;20204;-81
2023/09/06 10:47:40;;;;;;;8.93;6.33;;;;;;;;;;5089645;28;20200;-81
2023/09/06 10:50:12;;;;;;;7.17;6.37;;;;;;;;;;5109743;28;20205;-82
2023/09/06 10:52:42;;;;;;;9.07;6.00;;;;;;;;;;5107127;28;20282;-80
2023/09/06 10:55:16;;;;;;;8.40;6.50;;;;;;;;;;5093851;28;20197;-81
2023/09/06 10:57:55;;;;;;;9.63;7.07;;;;;;;;;;5101771;28;20595;-81
2023/09/06 11:00:30;;;;;;;7.20;6.40;;;;;;;;;;5113675;28;20283;-82
2023/09/06 11:03:17;;;;;;;6.80;6.13;;;;;;;;;;5103634;28;20627;-83
2023/09/06 11:05:48;;;;;;;13.80;6.17;;;;;;;;;;5099491;28;20242;-83
2023/09/06 11:08:26;;;;;;;8.53;6.20;;;;;;;;;;5105733;28;20246;-86
2023/09/06 11:10:54;;;;;;;11.20;5.70;;;;;;;;;;5093047;28;20281;-85
2023/09/06 11:13:22;;;;;;;11.77;6.97;;;;;;;;;;5103598;28;20199;-83
2023/09/06 11:15:51;;;;;;;7.88;6.40;;;;;;;;;;5109674;28;20216;-82
2023/09/06 11:18:18;;;;;;;7.05;6.03;;;;;;;;;;5104211;28;20231;-81
2023/09/06 11:20:48;;;;;;;7.05;6.00;;;;;;;;;;5099249;28;20265;-82
2023/09/06 11:23:15;;;;;;;5.90;5.30;;;;;;;;;;5113274;28;20200;-81
2023/09/06 11:25:42;;;;;;;7.32;5.40;;;;;;;;;;5112893;28;20691;-80
2023/09/06 11:28:16;;;;;;;8.02;5.65;;;;;;;;;;5094665;28;20283;-81
2023/09/06 11:30:45;;;;;;;8.75;6.65;;;;;;;;;;5092736;28;20278;-81
2023/09/06 11:33:13;;;;;;;8.95;5.72;;;;;;;;;;5106514;28;20235;-84
2023/09/06 11:35:46;;;;;;;6.47;5.90;;;;;;;;;;5093847;28;20197;-80
2023/09/06 11:38:16;;;;;;;7.53;6.75;;;;;;;;;;5094473;28;20204;-80
2023/09/06 11:40:44;;;;;;;8.30;6.18;;;;;;;;;;5109749;28;20755;-82
2023/09/06 11:43:13;;;;;;;6.63;5.93;;;;;;;;;;5101178;28;20211;-82
2023/09/06 11:45:43;;;;;;;6.10;5.50;;;;;;;;;;5096511;28;20666;-83
2023/09/06 11:48:10;;;;;;;7.35;5.65;;;;;;;;;;5113131;28;20204;-82
2023/09/06 11:50:40;;;;;;;6.45;5.90;;;;;;;;;;5093884;28;20200;-83
2023/09/06 11:53:09;;;;;;;8.57;6.47;;;;;;;;;;5092438;28;20212;-82
2023/09/06 11:55:39;;;;;;;7.55;6.13;;;;;;;;;;5092051;28;20611;-82
2023/09/06 11:58:10;;;;;;;7.40;6.13;;;;;;;;;;5092203;28;20254;-83
2023/09/06 12:00:42;;;;;;;6.85;5.82;;;;;;;;;;5099062;28;20230;-83
2023/09/06 12:03:16;;;;;;;6.70;6.00;;;;;;;;;;5096730;28;20723;-83
2023/09/06 12:05:46;;;;;;;6.80;6.03;;;;;;;;;;5092425;28;20204;-83
2023/09/06 12:08:16;;;;;;;8.00;5.23;;;;;;;;;;5105739;28;20208;-84
2023/09/06 12:10:49;;;;;;;7.33;5.70;;;;;;;;;;5103009;28;20235;-81
2023/09/06 12:13:16;;;;;;;6.70;5.80;;;;;;;;;;5112573;28;20203;-86
2023/09/06 12:15:43;;;;;;;6.90;5.80;;;;;;;;;;5100611;28;20231;-87
2023/09/06 12:18:10;;;;;;;6.28;5.68;;;;;;;;;;5105802;28;20205;-87
2023/09/06 12:20:38;;;;;;;6.70;6.10;;;;;;;;;;5091917;28;20224;-86
2023/09/06 12:23:06;;;;;;;5.93;5.43;;;;;;;;;;5105978;28;20204;-86
2023/09/06 12:25:34;;;;;;;6.83;5.57;;;;;;;;;;5105555;28;20658;-86
2023/09/06 12:28:03;;;;;;;6.00;5.37;;;;;;;;;;5105649;28;20197;-88
2023/09/06 12:30:29;;;;;;;5.67;5.03;;;;;;;;;;5104098;28;20207;-89
2023/09/06 12:32:59;;;;;;;5.70;5.13;;;;;;;;;;5106700;28;20200;-77
2023/09/06 12:35:26;;;;;;;6.53;5.93;;;;;;;;;;5092133;28;20200;-77
2023/09/06 12:37:53;;;;;;;6.80;5.40;;;;;;;;;;5091399;28;20193;-77
2023/09/06 12:40:28;;;;;;;6.60;5.57;;;;;;;;;;5102701;28;20227;-77
2023/09/06 12:42:55;;;;;;;6.30;5.80;;;;;;;;;;5102553;28;20293;-77
2023/09/06 12:45:26;;;;;;;7.57;6.55;;;;;;;;;;5102949;28;20210;-77
2023/09/06 12:47:53;;;;;;;6.10;5.60;;;;;;;;;;5099634;28;20673;-77
2023/09/06 12:50:20;;;;;;;6.63;5.63;;;;;;;;;;5097692;28;20212;-77
2023/09/06 12:52:47;;;;;;;8.40;7.45;;;;;;;;;;5098012;28;20235;-77
2023/09/06 12:55:17;;;;;;;6.93;6.00;;;;;;;;;;5104378;28;20203;-78
2023/09/06 12:57:45;;;;;;;7.75;6.00;;;;;;;;;;5102590;28;20207;-77
2023/09/06 13:00:13;;;;;;;6.37;5.80;;;;;;;;;;5088789;28;20318;-77
2023/09/06 13:02:41;;;;;;;8.90;6.00;;;;;;;;;;5098498;28;20207;-77
2023/09/06 13:05:09;;;;;;;11.10;6.25;;;;;;;;;;5093071;28;20192;-77
2023/09/06 13:07:36;;;;;;;8.95;6.25;;;;;;;;;;5089944;28;20200;-77
2023/09/06 13:10:03;;;;;;;14.13;6.65;;;;;;;;;;5103466;28;20238;-77
2023/09/06 13:12:30;;;;;;;18.10;7.13;;;;;;;;;;5090116;28;20196;-78
2023/09/06 13:14:58;;;;;;;26.80;8.23;;;;;;;;;;5108344;28;20203;-77
2023/09/06 13:17:26;;;;;;;8.17;6.00;;;;;;;;;;5100109;28;20295;-77
2023/09/06 13:19:54;;;;;;;8.80;6.47;;;;;;;;;;5104843;28;20196;-77
2023/09/06 13:22:21;;;;;;;20.50;7.00;;;;;;;;;;5090845;28;20700;-77
2023/09/06 13:24:48;;;;;;;6.40;5.73;;;;;;;;;;5104072;28;20200;-77
2023/09/06 13:27:18;;;;;;;6.77;6.07;;;;;;;;;;5090554;28;20200;-77
2023/09/06 13:29:45;;;;;;;28.87;7.03;;;;;;;;;;5095922;28;20200;-77
2023/09/06 13:32:13;;;;;;;17.40;7.17;;;;;;;;;;5098801;28;20670;-77
2023/09/06 13:34:40;;;;;;;7.70;6.07;;;;;;;;;;5104176;28;20200;-78
2023/09/06 13:37:07;;;;;;;14.13;7.27;;;;;;;;;;5094936;28;20196;-78
2023/09/06 13:39:33;;;;;;;10.67;6.50;;;;;;;;;;5091639;28;20209;-78
2023/09/06 13:42:00;;;;;;;19.03;8.03;;;;;;;;;;5089466;28;20245;-78
2023/09/06 13:44:31;;;;;;;9.50;6.30;;;;;;;;;;5104454;28;20200;-77
2023/09/06 13:47:00;;;;;;;6.87;5.83;;;;;;;;;;5104479;28;20562;-77
2023/09/06 13:49:28;;;;;;;7.38;6.55;;;;;;;;;;5097789;28;20199;-77
2023/09/06 13:51:55;;;;;;;6.57;5.97;;;;;;;;;;5097211;28;20321;-78
2023/09/06 13:54:22;;;;;;;7.80;6.17;;;;;;;;;;5110660;28;20206;-77
2023/09/06 13:56:49;;;;;;;6.70;6.10;;;;;;;;;;5110504;28;20199;-78
2023/09/06 13:59:17;;;;;;;6.23;5.73;;;;;;;;;;5102795;28;20200;-78
2023/09/06 14:01:44;;;;;;;12.07;6.20;;;;;;;;;;5090338;28;20235;-78
2023/09/06 14:04:11;;;;;;;12.43;6.57;;;;;;;;;;5099250;28;20202;-77
2023/09/06 14:06:39;;;;;;;14.17;7.37;;;;;;;;;;5094981;28;20205;-77
2023/09/06 14:09:07;;;;;;;13.23;6.77;;;;;;;;;;5090475;28;20611;-78
2023/09/06 14:11:34;;;;;;;8.60;5.83;;;;;;;;;;5103929;28;20231;-76
2023/09/06 14:14:04;;;;;;;8.37;6.17;;;;;;;;;;5100470;28;20199;-77
2023/09/06 14:16:31;;;;;;;7.07;6.37;;;;;;;;;;5107637;28;20211;-77
2023/09/06 14:18:58;;;;;;;6.50;5.97;;;;;;;;;;5100208;28;20223;-78
2023/09/06 14:21:25;;;;;;;9.57;6.57;;;;;;;;;;5093288;28;20645;-77
2023/09/06 14:23:53;;;;;;;7.17;6.27;;;;;;;;;;5107770;28;20208;-77
2023/09/06 14:26:20;;;;;;;7.07;6.10;;;;;;;;;;5096706;28;20690;-78
2023/09/06 14:28:48;;;;;;;8.00;7.20;;;;;;;;;;5102499;28;20597;-78
2023/09/06 14:31:15;;;;;;;11.07;7.13;;;;;;;;;;5090113;28;20692;-77
2023/09/06 14:33:42;;;;;;;7.53;6.60;;;;;;;;;;5090577;28;20602;-77
2023/09/06 14:36:09;;;;;;;7.97;6.90;;;;;;;;;;5103518;28;20563;-77
2023/09/06 14:38:37;;;;;;;9.60;6.57;;;;;;;;;;5103837;28;20200;-77
2023/09/06 14:41:05;;;;;;;7.57;6.27;;;;;;;;;;5108603;28;20219;-78
2023/09/06 14:43:33;;;;;;;6.83;6.27;;;;;;;;;;5093858;28;20661;-78
2023/09/06 14:46:04;;;;;;;6.87;6.27;;;;;;;;;;5107647;28;20206;-77
2023/09/06 14:48:31;;;;;;;7.30;6.60;;;;;;;;;;5103895;28;20203;-77